Time;durP1;ratioP1;P1;durP2;ratioP2;P2;SDS_P1;SDS_P2;PMS_P1;PMS_P2;Temp;Humidity;BMP_temperature;BMP_pressure;BME280_temperature;BME280_humidity;BME280_pressure;Samples;Min_cycle;Max_cycle;Signal;HPM_P1;HPM_P2
2024/03/24 00:06:12;;;;;;;;;;;4.60;99.90;;;;;;6740121;88;20079;-77
2024/03/24 00:16:12;;;;;;;;;;;4.50;99.90;;;;;;6734614;88;20055;-78
2024/03/24 00:26:13;;;;;;;;;;;4.50;99.90;;;;;;6737664;88;20530;-78
2024/03/24 00:36:13;;;;;;;;;;;4.60;99.90;;;;;;6739619;88;20074;-78
2024/03/24 00:46:13;;;;;;;;;;;4.60;99.90;;;;;;6742332;88;20125;-78
2024/03/24 00:56:14;;;;;;;;;;;4.60;99.90;;;;;;6739760;88;20051;-78
2024/03/24 01:06:14;;;;;;;;;;;4.40;99.90;;;;;;6741649;77;20093;-77
2024/03/24 01:16:15;;;;;;;;;;;4.40;99.90;;;;;;6718567;88;20066;-77
2024/03/24 01:26:16;;;;;;;;;;;4.30;99.90;;;;;;6719300;88;20070;-77
2024/03/24 01:36:16;;;;;;;;;;;4.10;99.90;;;;;;6720360;88;20059;-77
2024/03/24 01:46:16;;;;;;;;;;;4.10;99.90;;;;;;6724155;88;20063;-77
2024/03/24 01:56:17;;;;;;;;;;;3.90;99.90;;;;;;6719567;88;20067;-77
2024/03/24 02:06:18;;;;;;;;;;;3.90;99.90;;;;;;6721206;88;20171;-77
2024/03/24 02:16:18;;;;;;;;;;;3.90;99.90;;;;;;6719881;88;20078;-76
2024/03/24 02:26:19;;;;;;;;;;;4.10;99.90;;;;;;6731907;88;20059;-77
2024/03/24 02:36:19;;;;;;;;;;;4.20;99.90;;;;;;6723116;88;20525;-77
2024/03/24 02:46:19;;;;;;;;;;;4.00;99.90;;;;;;6725159;88;20164;-77
2024/03/24 02:56:20;;;;;;;;;;;3.90;99.90;;;;;;6726786;88;20059;-77
2024/03/24 03:06:20;;;;;;;;;;;4.00;99.90;;;;;;6721081;88;20086;-77
2024/03/24 03:16:21;;;;;;;;;;;4.00;99.90;;;;;;6726876;88;20063;-77
2024/03/24 03:26:21;;;;;;;;;;;4.20;99.90;;;;;;6722406;88;20078;-77
2024/03/24 03:36:22;;;;;;;;;;;4.30;99.90;;;;;;6722547;88;20063;-77
2024/03/24 03:46:22;;;;;;;;;;;4.30;99.90;;;;;;6724108;88;20087;-77
2024/03/24 03:56:23;;;;;;;;;;;4.60;99.90;;;;;;6721777;88;20106;-77
2024/03/24 04:06:23;;;;;;;;;;;4.60;99.90;;;;;;6722288;88;20165;-77
2024/03/24 04:16:24;;;;;;;;;;;4.70;99.90;;;;;;6724522;88;20519;-78
2024/03/24 04:26:24;;;;;;;;;;;4.70;99.90;;;;;;6722690;88;20505;-76
2024/03/24 04:36:25;;;;;;;;;;;4.80;99.90;;;;;;6717883;88;20079;-76
2024/03/24 04:46:25;;;;;;;;;;;4.50;99.90;;;;;;6721015;88;20075;-76
2024/03/24 04:56:26;;;;;;;;;;;4.50;99.90;;;;;;6723964;88;20072;-76
2024/03/24 05:06:27;;;;;;;;;;;4.70;99.90;;;;;;6721842;88;20100;-76
2024/03/24 05:16:31;;;;;;;;;;;4.70;99.90;;;;;;6715011;88;20066;-76
2024/03/24 05:26:33;;;;;;;;;;;4.70;99.90;;;;;;6720558;88;20080;-76
2024/03/24 05:36:33;;;;;;;;;;;4.50;99.90;;;;;;6717680;88;20625;-76
2024/03/24 05:46:33;;;;;;;;;;;4.30;99.90;;;;;;6722050;88;20094;-77
2024/03/24 05:56:34;;;;;;;;;;;4.30;99.90;;;;;;6720178;88;20089;-77
2024/03/24 06:06:34;;;;;;;;;;;4.40;99.90;;;;;;6717373;88;20070;-77
2024/03/24 06:16:35;;;;;;;;;;;4.60;99.90;;;;;;6718006;88;20116;-76
2024/03/24 06:26:35;;;;;;;;;;;4.80;99.90;;;;;;6722206;88;20064;-77
2024/03/24 06:36:40;;;;;;;;;;;4.90;99.90;;;;;;6725041;88;20709;-78
2024/03/24 06:46:40;;;;;;;;;;;5.00;99.90;;;;;;6727064;88;20093;-77
2024/03/24 06:56:41;;;;;;;;;;;5.20;99.90;;;;;;6730615;88;20167;-77
2024/03/24 07:16:45;;;;;;;;;;;5.60;99.90;;;;;;6747026;88;20062;-78
2024/03/24 07:26:45;;;;;;;;;;;5.90;99.90;;;;;;6744010;88;20072;-77
2024/03/24 07:36:46;;;;;;;;;;;6.30;99.90;;;;;;6738973;88;20553;-77
2024/03/24 07:46:46;;;;;;;;;;;6.50;99.90;;;;;;6742714;88;20085;-77
2024/03/24 07:56:47;;;;;;;;;;;6.50;99.90;;;;;;6743083;88;20186;-77
2024/03/24 08:06:47;;;;;;;;;;;6.30;99.90;;;;;;6739761;88;20062;-77
2024/03/24 08:16:48;;;;;;;;;;;6.30;99.90;;;;;;6741392;88;20062;-76
2024/03/24 08:26:48;;;;;;;;;;;6.10;99.90;;;;;;6741993;88;20083;-77
2024/03/24 08:36:49;;;;;;;;;;;5.40;99.90;;;;;;6745709;88;20059;-77
2024/03/24 08:46:49;;;;;;;;;;;5.20;99.90;;;;;;6745105;88;20814;-77
2024/03/24 08:56:50;;;;;;;;;;;5.40;99.90;;;;;;6751639;88;20095;-78
2024/03/24 09:06:50;;;;;;;;;;;6.40;99.90;;;;;;6749275;88;20058;-78
2024/03/24 09:16:50;;;;;;;;;;;6.20;99.90;;;;;;6739919;88;20180;-78
2024/03/24 09:26:51;;;;;;;;;;;6.20;99.90;;;;;;6736582;88;20101;-78
2024/03/24 09:36:51;;;;;;;;;;;7.40;99.90;;;;;;6732598;88;20517;-77
2024/03/24 09:46:52;;;;;;;;;;;7.20;99.90;;;;;;6732951;88;20128;-77
2024/03/24 09:56:52;;;;;;;;;;;7.40;99.90;;;;;;6733489;88;20534;-77
2024/03/24 10:06:53;;;;;;;;;;;6.90;99.90;;;;;;6735599;88;20042;-79
2024/03/24 10:17:09;;;;;;;;;;;8.40;99.90;;;;;;6743901;88;20046;-78
2024/03/24 10:27:10;;;;;;;;;;;8.90;99.90;;;;;;6742784;88;20175;-78
2024/03/24 10:37:10;;;;;;;;;;;10.50;99.90;;;;;;6743160;88;20050;-77
2024/03/24 10:47:11;;;;;;;;;;;11.20;99.90;;;;;;6742862;88;20057;-77
2024/03/24 10:57:12;;;;;;;;;;;11.40;99.90;;;;;;6739287;88;20500;-76
2024/03/24 11:07:16;;;;;;;;;;;10.10;99.90;;;;;;6734184;88;20076;-76
2024/03/24 11:17:18;;;;;;;;;;;10.20;99.90;;;;;;6733050;88;20623;-77
2024/03/24 11:27:28;;;;;;;;;;;11.20;99.90;;;;;;6738070;88;20076;-76
2024/03/24 11:37:29;;;;;;;;;;;11.60;99.90;;;;;;6732344;88;20088;-77
2024/03/24 11:47:30;;;;;;;;;;;12.30;99.90;;;;;;6733683;88;20072;-77
2024/03/24 11:57:31;;;;;;;;;;;12.00;99.90;;;;;;6737228;88;20057;-76
2024/03/24 12:07:31;;;;;;;;;;;9.80;99.90;;;;;;6734951;88;20124;-76
2024/03/24 12:17:32;;;;;;;;;;;9.80;99.90;;;;;;6729765;88;20068;-78
2024/03/24 12:27:33;;;;;;;;;;;9.90;99.90;;;;;;6729820;88;20089;-77
2024/03/24 12:37:34;;;;;;;;;;;10.40;99.90;;;;;;6729501;88;20179;-75
2024/03/24 12:47:34;;;;;;;;;;;9.90;99.90;;;;;;6733758;88;20078;-76
2024/03/24 12:57:35;;;;;;;;;;;10.30;99.90;;;;;;6731647;88;20080;-77
2024/03/24 13:07:35;;;;;;;;;;;11.00;99.90;;;;;;6730579;88;20233;-77
2024/03/24 13:17:36;;;;;;;;;;;11.80;99.90;;;;;;6727622;88;20098;-76
2024/03/24 13:27:39;;;;;;;;;;;9.90;99.90;;;;;;6727643;88;20050;-76
2024/03/24 13:37:45;;;;;;;;;;;9.40;99.90;;;;;;6730489;88;20168;-76
2024/03/24 13:47:48;;;;;;;;;;;10.00;99.90;;;;;;6729856;88;20124;-78
2024/03/24 13:57:48;;;;;;;;;;;10.30;99.90;;;;;;6734534;88;20542;-76
2024/03/24 14:07:49;;;;;;;;;;;11.20;99.90;;;;;;6732516;88;20116;-76
2024/03/24 14:17:59;;;;;;;;;;;10.50;99.90;;;;;;6729857;88;20054;-77
2024/03/24 14:27:59;;;;;;;;;;;10.00;99.90;;;;;;6734225;88;20538;-77
2024/03/24 14:38:18;;;;;;;;;;;9.40;99.90;;;;;;6736440;88;20071;-77
2024/03/24 14:48:25;;;;;;;;;;;9.80;99.90;;;;;;6734784;88;20099;-76
2024/03/24 14:58:25;;;;;;;;;;;9.50;99.90;;;;;;6735710;88;20576;-77
2024/03/24 15:08:26;;;;;;;;;;;10.70;99.90;;;;;;6737492;88;20102;-78
2024/03/24 15:18:26;;;;;;;;;;;10.70;99.90;;;;;;6749980;88;20849;-76
2024/03/24 15:28:27;;;;;;;;;;;10.00;99.90;;;;;;6736597;88;20088;-76
2024/03/24 15:38:27;;;;;;;;;;;10.20;99.90;;;;;;6735307;88;20059;-76
2024/03/24 15:48:28;;;;;;;;;;;10.00;99.90;;;;;;6735119;88;20465;-77
2024/03/24 15:58:31;;;;;;;;;;;9.40;99.90;;;;;;6733503;88;20050;-77
2024/03/24 16:08:31;;;;;;;;;;;9.50;99.90;;;;;;6732109;88;20062;-77
2024/03/24 16:18:32;;;;;;;;;;;9.00;99.90;;;;;;6731078;88;20069;-78
2024/03/24 16:28:32;;;;;;;;;;;9.00;99.90;;;;;;6731100;88;20520;-76
2024/03/24 16:38:33;;;;;;;;;;;8.50;99.90;;;;;;6728875;88;20070;-76
2024/03/24 16:48:33;;;;;;;;;;;8.80;99.90;;;;;;6729680;88;20079;-77
2024/03/24 16:58:37;;;;;;;;;;;8.70;99.90;;;;;;6732416;88;20521;-78
2024/03/24 17:08:38;;;;;;;;;;;8.70;99.90;;;;;;6740009;88;20083;-77
2024/03/24 17:18:38;;;;;;;;;;;8.70;99.90;;;;;;6731159;88;20102;-76
2024/03/24 17:28:39;;;;;;;;;;;8.70;99.90;;;;;;6732817;88;20112;-76
2024/03/24 17:38:39;;;;;;;;;;;8.40;99.90;;;;;;6732269;88;20553;-77
2024/03/24 17:48:40;;;;;;;;;;;7.00;99.90;;;;;;6730693;88;20054;-77
2024/03/24 17:58:40;;;;;;;;;;;6.50;99.90;;;;;;6729444;88;20555;-77
2024/03/24 18:19:00;;;;;;;;;;;6.40;99.90;;;;;;6739637;88;20038;-77
2024/03/24 18:29:01;;;;;;;;;;;6.60;99.90;;;;;;6739154;88;20063;-77
2024/03/24 18:39:01;;;;;;;;;;;6.60;99.90;;;;;;6734370;88;20070;-78
2024/03/24 18:49:02;;;;;;;;;;;6.60;99.90;;;;;;6735014;88;20084;-76
2024/03/24 18:59:02;;;;;;;;;;;6.40;99.90;;;;;;6739419;88;20098;-77
2024/03/24 19:09:03;;;;;;;;;;;6.30;99.90;;;;;;6737128;77;20797;-76
2024/03/24 19:19:03;;;;;;;;;;;6.40;99.90;;;;;;6712671;88;20075;-76
2024/03/24 19:29:04;;;;;;;;;;;6.30;99.90;;;;;;6706855;88;20059;-78
2024/03/24 19:39:05;;;;;;;;;;;6.20;99.90;;;;;;6703019;88;20051;-76
2024/03/24 19:49:05;;;;;;;;;;;6.20;99.90;;;;;;6707109;88;20175;-76
2024/03/24 19:59:07;;;;;;;;;;;6.30;99.90;;;;;;6701941;88;20625;-77
2024/03/24 20:09:08;;;;;;;;;;;6.20;99.90;;;;;;6700535;88;20063;-77
2024/03/24 20:19:09;;;;;;;;;;;6.40;99.90;;;;;;6705081;88;20078;-78
2024/03/24 20:29:10;;;;;;;;;;;6.40;99.90;;;;;;6709392;88;20067;-78
2024/03/24 20:39:10;;;;;;;;;;;6.40;99.90;;;;;;6706683;88;20923;-77
2024/03/24 20:49:11;;;;;;;;;;;6.40;99.90;;;;;;6709161;88;20496;-78
2024/03/24 20:59:11;;;;;;;;;;;6.20;99.90;;;;;;6702288;88;20083;-78
2024/03/24 21:09:15;;;;;;;;;;;6.20;99.90;;;;;;6706191;88;20113;-78
2024/03/24 21:19:15;;;;;;;;;;;6.10;99.90;;;;;;6704205;88;20118;-78
2024/03/24 21:29:16;;;;;;;;;;;6.10;99.90;;;;;;6706338;88;20498;-81
2024/03/24 21:49:39;;;;;;;;;;;6.00;99.90;;;;;;6707980;88;20069;-80
2024/03/24 21:59:40;;;;;;;;;;;6.00;99.90;;;;;;6710567;88;20106;-80
2024/03/24 22:09:40;;;;;;;;;;;5.90;99.90;;;;;;6717300;88;20055;-80
2024/03/24 22:19:41;;;;;;;;;;;5.80;99.90;;;;;;6715004;88;20551;-79
2024/03/24 22:29:43;;;;;;;;;;;5.70;99.90;;;;;;6725142;88;20194;-79
2024/03/24 22:39:43;;;;;;;;;;;5.60;99.90;;;;;;6711958;88;20530;-78
2024/03/24 22:49:43;;;;;;;;;;;5.70;99.90;;;;;;6709484;88;20063;-79
2024/03/24 22:59:44;;;;;;;;;;;5.60;99.90;;;;;;6709401;88;20066;-80
2024/03/24 23:09:45;;;;;;;;;;;5.60;99.90;;;;;;6707665;88;20157;-80
2024/03/24 23:19:46;;;;;;;;;;;5.60;99.90;;;;;;6694880;88;20089;-80
2024/03/24 23:29:46;;;;;;;;;;;5.70;99.90;;;;;;6712989;88;20056;-80
2024/03/24 23:39:46;;;;;;;;;;;5.70;99.90;;;;;;6691126;88;20041;-80
2024/03/24 23:49:47;;;;;;;;;;;5.80;99.90;;;;;;6708241;88;20521;-79
2024/03/24 23:59:47;;;;;;;;;;;5.80;99.90;;;;;;6711325;88;20137;-79
